sensor_id;sensor_type;location;lat;lon;timestamp;P1;durP1;ratioP1;P2;durP2;ratioP2
21101;SDS011;10709;49.006;12.100;2023-11-22T00:01:05;5.67;;;4.30;;
21101;SDS011;10709;49.006;12.100;2023-11-22T00:03:32;4.90;;;3.70;;
21101;SDS011;10709;49.006;12.100;2023-11-22T00:05:59;4.17;;;3.53;;
21101;SDS011;10709;49.006;12.100;2023-11-22T00:08:26;5.13;;;3.97;;
21101;SDS011;10709;49.006;12.100;2023-11-22T00:10:53;5.37;;;4.13;;
21101;SDS011;10709;49.006;12.100;2023-11-22T00:13:19;4.43;;;3.57;;
21101;SDS011;10709;49.006;12.100;2023-11-22T00:15:46;4.77;;;3.57;;
21101;SDS011;10709;49.006;12.100;2023-11-22T00:18:13;5.07;;;4.10;;
21101;SDS011;10709;49.006;12.100;2023-11-22T00:20:40;5.37;;;4.10;;
21101;SDS011;10709;49.006;12.100;2023-11-22T00:23:06;4.80;;;3.90;;
21101;SDS011;10709;49.006;12.100;2023-11-22T00:25:33;4.80;;;3.90;;
21101;SDS011;10709;49.006;12.100;2023-11-22T00:28:01;4.60;;;3.70;;
21101;SDS011;10709;49.006;12.100;2023-11-22T00:30:28;5.07;;;3.90;;
21101;SDS011;10709;49.006;12.100;2023-11-22T00:32:58;4.77;;;3.80;;
21101;SDS011;10709;49.006;12.100;2023-11-22T00:35:26;5.23;;;3.77;;
21101;SDS011;10709;49.006;12.100;2023-11-22T00:37:53;5.63;;;3.80;;
21101;SDS011;10709;49.006;12.100;2023-11-22T00:40:20;5.30;;;4.10;;
21101;SDS011;10709;49.006;12.100;2023-11-22T00:42:46;4.33;;;3.60;;
21101;SDS011;10709;49.006;12.100;2023-11-22T00:45:13;4.90;;;3.50;;
21101;SDS011;10709;49.006;12.100;2023-11-22T00:47:40;4.70;;;3.70;;
21101;SDS011;10709;49.006;12.100;2023-11-22T00:50:07;4.47;;;3.90;;
21101;SDS011;10709;49.006;12.100;2023-11-22T00:52:34;4.90;;;3.80;;
21101;SDS011;10709;49.006;12.100;2023-11-22T00:55:01;6.27;;;3.63;;
21101;SDS011;10709;49.006;12.100;2023-11-22T00:57:27;4.07;;;3.60;;
21101;SDS011;10709;49.006;12.100;2023-11-22T00:59:56;4.73;;;3.70;;
21101;SDS011;10709;49.006;12.100;2023-11-22T01:02:22;4.90;;;3.50;;
21101;SDS011;10709;49.006;12.100;2023-11-22T01:04:49;4.33;;;3.60;;
21101;SDS011;10709;49.006;12.100;2023-11-22T01:07:15;5.20;;;4.23;;
21101;SDS011;10709;49.006;12.100;2023-11-22T01:09:42;4.27;;;3.73;;
21101;SDS011;10709;49.006;12.100;2023-11-22T01:12:08;3.97;;;3.23;;
21101;SDS011;10709;49.006;12.100;2023-11-22T01:14:35;4.50;;;3.70;;
21101;SDS011;10709;49.006;12.100;2023-11-22T01:17:03;4.40;;;3.70;;
21101;SDS011;10709;49.006;12.100;2023-11-22T01:19:29;4.33;;;3.53;;
21101;SDS011;10709;49.006;12.100;2023-11-22T01:21:57;4.63;;;3.87;;
21101;SDS011;10709;49.006;12.100;2023-11-22T01:24:24;4.60;;;3.63;;
21101;SDS011;10709;49.006;12.100;2023-11-22T01:26:52;4.63;;;3.70;;
21101;SDS011;10709;49.006;12.100;2023-11-22T01:29:19;4.07;;;3.50;;
21101;SDS011;10709;49.006;12.100;2023-11-22T01:31:45;4.67;;;2.90;;
21101;SDS011;10709;49.006;12.100;2023-11-22T01:34:12;4.10;;;3.30;;
21101;SDS011;10709;49.006;12.100;2023-11-22T01:36:41;3.77;;;3.10;;
21101;SDS011;10709;49.006;12.100;2023-11-22T01:39:10;3.80;;;3.20;;
21101;SDS011;10709;49.006;12.100;2023-11-22T01:41:44;4.37;;;3.40;;
21101;SDS011;10709;49.006;12.100;2023-11-22T01:44:11;4.27;;;2.90;;
21101;SDS011;10709;49.006;12.100;2023-11-22T01:46:38;4.43;;;3.20;;
21101;SDS011;10709;49.006;12.100;2023-11-22T01:49:05;4.00;;;3.13;;
21101;SDS011;10709;49.006;12.100;2023-11-22T01:51:31;3.47;;;3.07;;
21101;SDS011;10709;49.006;12.100;2023-11-22T01:53:58;4.43;;;3.20;;
21101;SDS011;10709;49.006;12.100;2023-11-22T01:56:26;3.60;;;3.00;;
21101;SDS011;10709;49.006;12.100;2023-11-22T01:58:55;3.10;;;2.70;;
21101;SDS011;10709;49.006;12.100;2023-11-22T02:01:24;3.77;;;2.97;;
21101;SDS011;10709;49.006;12.100;2023-11-22T02:03:52;3.07;;;2.60;;
21101;SDS011;10709;49.006;12.100;2023-11-22T02:06:20;4.13;;;3.10;;
21101;SDS011;10709;49.006;12.100;2023-11-22T02:08:48;3.57;;;2.60;;
21101;SDS011;10709;49.006;12.100;2023-11-22T02:11:16;3.43;;;2.83;;
21101;SDS011;10709;49.006;12.100;2023-11-22T02:13:49;3.73;;;2.90;;
21101;SDS011;10709;49.006;12.100;2023-11-22T02:16:16;4.13;;;2.80;;
21101;SDS011;10709;49.006;12.100;2023-11-22T02:18:44;3.63;;;2.67;;
21101;SDS011;10709;49.006;12.100;2023-11-22T02:21:12;3.97;;;2.50;;
21101;SDS011;10709;49.006;12.100;2023-11-22T02:23:38;4.47;;;2.60;;
21101;SDS011;10709;49.006;12.100;2023-11-22T02:26:05;3.27;;;2.53;;
21101;SDS011;10709;49.006;12.100;2023-11-22T02:28:32;2.80;;;2.40;;
21101;SDS011;10709;49.006;12.100;2023-11-22T02:31:00;4.67;;;2.63;;
21101;SDS011;10709;49.006;12.100;2023-11-22T02:33:27;2.60;;;2.20;;
21101;SDS011;10709;49.006;12.100;2023-11-22T02:35:53;2.90;;;2.50;;
21101;SDS011;10709;49.006;12.100;2023-11-22T02:38:21;3.13;;;2.50;;
21101;SDS011;10709;49.006;12.100;2023-11-22T02:40:47;3.63;;;2.43;;
21101;SDS011;10709;49.006;12.100;2023-11-22T02:43:19;3.77;;;2.40;;
21101;SDS011;10709;49.006;12.100;2023-11-22T02:45:46;3.03;;;2.30;;
21101;SDS011;10709;49.006;12.100;2023-11-22T02:48:14;2.90;;;2.43;;
21101;SDS011;10709;49.006;12.100;2023-11-22T02:50:40;4.10;;;2.50;;
21101;SDS011;10709;49.006;12.100;2023-11-22T02:53:10;2.83;;;2.40;;
21101;SDS011;10709;49.006;12.100;2023-11-22T02:55:37;2.70;;;2.40;;
21101;SDS011;10709;49.006;12.100;2023-11-22T02:58:03;3.57;;;2.33;;
21101;SDS011;10709;49.006;12.100;2023-11-22T03:00:30;3.00;;;2.27;;
21101;SDS011;10709;49.006;12.100;2023-11-22T03:02:57;4.40;;;2.80;;
21101;SDS011;10709;49.006;12.100;2023-11-22T03:05:24;3.57;;;2.90;;
21101;SDS011;10709;49.006;12.100;2023-11-22T03:07:51;3.37;;;2.90;;
21101;SDS011;10709;49.006;12.100;2023-11-22T03:10:17;3.50;;;2.90;;
21101;SDS011;10709;49.006;12.100;2023-11-22T03:12:53;3.17;;;2.83;;
21101;SDS011;10709;49.006;12.100;2023-11-22T03:15:20;3.03;;;2.67;;
21101;SDS011;10709;49.006;12.100;2023-11-22T03:17:47;3.10;;;2.80;;
21101;SDS011;10709;49.006;12.100;2023-11-22T03:20:15;4.10;;;3.03;;
21101;SDS011;10709;49.006;12.100;2023-11-22T03:22:42;3.63;;;3.00;;
21101;SDS011;10709;49.006;12.100;2023-11-22T03:25:12;3.37;;;2.70;;
21101;SDS011;10709;49.006;12.100;2023-11-22T03:27:38;3.13;;;2.70;;
21101;SDS011;10709;49.006;12.100;2023-11-22T03:30:05;4.23;;;3.23;;
21101;SDS011;10709;49.006;12.100;2023-11-22T03:32:38;3.97;;;3.00;;
21101;SDS011;10709;49.006;12.100;2023-11-22T03:35:06;3.97;;;3.30;;
21101;SDS011;10709;49.006;12.100;2023-11-22T03:37:34;4.10;;;2.97;;
21101;SDS011;10709;49.006;12.100;2023-11-22T03:40:01;3.70;;;3.20;;
21101;SDS011;10709;49.006;12.100;2023-11-22T03:42:29;5.50;;;3.50;;
21101;SDS011;10709;49.006;12.100;2023-11-22T03:44:55;4.17;;;3.33;;
21101;SDS011;10709;49.006;12.100;2023-11-22T03:47:22;5.73;;;3.70;;
21101;SDS011;10709;49.006;12.100;2023-11-22T03:49:49;4.43;;;3.53;;
21101;SDS011;10709;49.006;12.100;2023-11-22T03:52:16;3.37;;;3.00;;
21101;SDS011;10709;49.006;12.100;2023-11-22T03:54:44;3.97;;;3.13;;
21101;SDS011;10709;49.006;12.100;2023-11-22T03:57:12;4.53;;;3.57;;
21101;SDS011;10709;49.006;12.100;2023-11-22T03:59:40;4.67;;;3.13;;
21101;SDS011;10709;49.006;12.100;2023-11-22T04:02:07;4.10;;;3.20;;
21101;SDS011;10709;49.006;12.100;2023-11-22T04:04:33;4.00;;;3.37;;
21101;SDS011;10709;49.006;12.100;2023-11-22T04:07:01;4.43;;;3.60;;
21101;SDS011;10709;49.006;12.100;2023-11-22T04:09:28;4.83;;;3.40;;
21101;SDS011;10709;49.006;12.100;2023-11-22T04:11:56;4.67;;;3.70;;
21101;SDS011;10709;49.006;12.100;2023-11-22T04:14:22;4.33;;;3.27;;
21101;SDS011;10709;49.006;12.100;2023-11-22T04:16:50;5.50;;;3.87;;
21101;SDS011;10709;49.006;12.100;2023-11-22T04:19:17;4.60;;;3.70;;
21101;SDS011;10709;49.006;12.100;2023-11-22T04:21:44;4.63;;;3.90;;
21101;SDS011;10709;49.006;12.100;2023-11-22T04:24:11;4.63;;;3.83;;
21101;SDS011;10709;49.006;12.100;2023-11-22T04:26:38;4.87;;;3.60;;
21101;SDS011;10709;49.006;12.100;2023-11-22T04:29:06;4.83;;;3.57;;
21101;SDS011;10709;49.006;12.100;2023-11-22T04:31:32;4.47;;;3.80;;
21101;SDS011;10709;49.006;12.100;2023-11-22T04:34:00;5.07;;;3.50;;
21101;SDS011;10709;49.006;12.100;2023-11-22T04:36:26;5.90;;;4.13;;
21101;SDS011;10709;49.006;12.100;2023-11-22T04:38:53;5.67;;;4.57;;
21101;SDS011;10709;49.006;12.100;2023-11-22T04:41:20;5.93;;;3.90;;
21101;SDS011;10709;49.006;12.100;2023-11-22T04:43:47;5.40;;;4.30;;
21101;SDS011;10709;49.006;12.100;2023-11-22T04:46:13;4.63;;;3.93;;
21101;SDS011;10709;49.006;12.100;2023-11-22T04:48:40;5.07;;;4.30;;
21101;SDS011;10709;49.006;12.100;2023-11-22T04:51:10;4.77;;;3.87;;
21101;SDS011;10709;49.006;12.100;2023-11-22T04:53:37;6.90;;;3.83;;
21101;SDS011;10709;49.006;12.100;2023-11-22T04:56:06;5.30;;;4.03;;
21101;SDS011;10709;49.006;12.100;2023-11-22T04:58:33;4.50;;;3.60;;
21101;SDS011;10709;49.006;12.100;2023-11-22T05:01:05;4.70;;;3.80;;
21101;SDS011;10709;49.006;12.100;2023-11-22T05:03:31;4.10;;;3.60;;
21101;SDS011;10709;49.006;12.100;2023-11-22T05:05:58;4.33;;;3.60;;
21101;SDS011;10709;49.006;12.100;2023-11-22T05:08:25;4.30;;;3.57;;
21101;SDS011;10709;49.006;12.100;2023-11-22T05:10:55;4.00;;;3.50;;
21101;SDS011;10709;49.006;12.100;2023-11-22T05:13:22;7.07;;;3.57;;
21101;SDS011;10709;49.006;12.100;2023-11-22T05:15:49;4.63;;;3.87;;
21101;SDS011;10709;49.006;12.100;2023-11-22T05:18:17;4.90;;;3.53;;
21101;SDS011;10709;49.006;12.100;2023-11-22T05:20:43;4.23;;;3.27;;
21101;SDS011;10709;49.006;12.100;2023-11-22T05:23:10;4.10;;;3.43;;
21101;SDS011;10709;49.006;12.100;2023-11-22T05:25:37;3.90;;;3.23;;
21101;SDS011;10709;49.006;12.100;2023-11-22T05:28:03;4.03;;;3.43;;
21101;SDS011;10709;49.006;12.100;2023-11-22T05:30:30;4.33;;;3.70;;
21101;SDS011;10709;49.006;12.100;2023-11-22T05:32:57;3.47;;;2.97;;
21101;SDS011;10709;49.006;12.100;2023-11-22T05:35:23;4.17;;;3.63;;
21101;SDS011;10709;49.006;12.100;2023-11-22T05:37:50;4.03;;;3.60;;
21101;SDS011;10709;49.006;12.100;2023-11-22T05:40:17;3.73;;;3.33;;
21101;SDS011;10709;49.006;12.100;2023-11-22T05:42:44;4.47;;;3.60;;
21101;SDS011;10709;49.006;12.100;2023-11-22T05:45:11;3.70;;;3.30;;
21101;SDS011;10709;49.006;12.100;2023-11-22T05:47:37;4.60;;;3.47;;
21101;SDS011;10709;49.006;12.100;2023-11-22T05:50:04;4.53;;;3.50;;
21101;SDS011;10709;49.006;12.100;2023-11-22T05:52:34;4.77;;;3.57;;
21101;SDS011;10709;49.006;12.100;2023-11-22T05:55:01;3.67;;;3.20;;
21101;SDS011;10709;49.006;12.100;2023-11-22T05:57:30;3.50;;;3.13;;
21101;SDS011;10709;49.006;12.100;2023-11-22T05:59:57;4.10;;;3.07;;
21101;SDS011;10709;49.006;12.100;2023-11-22T06:02:23;3.87;;;2.97;;
21101;SDS011;10709;49.006;12.100;2023-11-22T06:04:50;4.60;;;3.30;;
21101;SDS011;10709;49.006;12.100;2023-11-22T06:07:17;3.83;;;3.40;;
21101;SDS011;10709;49.006;12.100;2023-11-22T06:09:44;4.13;;;3.43;;
21101;SDS011;10709;49.006;12.100;2023-11-22T06:12:12;3.43;;;3.13;;
21101;SDS011;10709;49.006;12.100;2023-11-22T06:14:39;4.20;;;3.43;;
21101;SDS011;10709;49.006;12.100;2023-11-22T06:17:06;3.93;;;3.30;;
21101;SDS011;10709;49.006;12.100;2023-11-22T06:19:34;5.17;;;3.33;;
21101;SDS011;10709;49.006;12.100;2023-11-22T06:22:01;5.03;;;3.43;;
21101;SDS011;10709;49.006;12.100;2023-11-22T06:24:28;4.23;;;3.33;;
21101;SDS011;10709;49.006;12.100;2023-11-22T06:26:55;4.03;;;3.43;;
21101;SDS011;10709;49.006;12.100;2023-11-22T06:29:22;3.97;;;3.43;;
21101;SDS011;10709;49.006;12.100;2023-11-22T06:31:48;4.97;;;4.00;;
21101;SDS011;10709;49.006;12.100;2023-11-22T06:34:15;4.80;;;3.67;;
21101;SDS011;10709;49.006;12.100;2023-11-22T06:36:42;4.03;;;3.43;;
21101;SDS011;10709;49.006;12.100;2023-11-22T06:39:09;4.70;;;3.80;;
21101;SDS011;10709;49.006;12.100;2023-11-22T06:41:36;4.87;;;3.87;;
21101;SDS011;10709;49.006;12.100;2023-11-22T06:44:04;5.20;;;3.60;;
21101;SDS011;10709;49.006;12.100;2023-11-22T06:46:31;5.07;;;3.43;;
21101;SDS011;10709;49.006;12.100;2023-11-22T06:48:58;5.20;;;3.67;;
21101;SDS011;10709;49.006;12.100;2023-11-22T06:51:26;5.37;;;4.17;;
21101;SDS011;10709;49.006;12.100;2023-11-22T06:53:52;5.33;;;3.90;;
21101;SDS011;10709;49.006;12.100;2023-11-22T06:56:23;4.50;;;3.37;;
21101;SDS011;10709;49.006;12.100;2023-11-22T06:58:50;4.57;;;3.70;;
21101;SDS011;10709;49.006;12.100;2023-11-22T07:01:17;4.47;;;3.60;;
21101;SDS011;10709;49.006;12.100;2023-11-22T07:03:45;4.73;;;3.90;;
21101;SDS011;10709;49.006;12.100;2023-11-22T07:06:13;5.10;;;3.90;;
21101;SDS011;10709;49.006;12.100;2023-11-22T07:08:39;5.17;;;3.80;;
21101;SDS011;10709;49.006;12.100;2023-11-22T07:11:07;4.20;;;3.73;;
21101;SDS011;10709;49.006;12.100;2023-11-22T07:13:36;5.70;;;4.17;;
21101;SDS011;10709;49.006;12.100;2023-11-22T07:16:05;5.20;;;3.93;;
21101;SDS011;10709;49.006;12.100;2023-11-22T07:18:33;5.50;;;3.93;;
21101;SDS011;10709;49.006;12.100;2023-11-22T07:21:00;6.40;;;4.10;;
21101;SDS011;10709;49.006;12.100;2023-11-22T07:23:27;5.53;;;4.40;;
21101;SDS011;10709;49.006;12.100;2023-11-22T07:25:56;4.87;;;4.00;;
21101;SDS011;10709;49.006;12.100;2023-11-22T07:28:22;5.10;;;4.07;;
21101;SDS011;10709;49.006;12.100;2023-11-22T07:30:48;6.97;;;4.77;;
21101;SDS011;10709;49.006;12.100;2023-11-22T07:33:15;6.77;;;3.80;;
21101;SDS011;10709;49.006;12.100;2023-11-22T07:35:41;6.77;;;4.53;;
21101;SDS011;10709;49.006;12.100;2023-11-22T07:38:09;5.30;;;4.43;;
21101;SDS011;10709;49.006;12.100;2023-11-22T07:40:37;6.73;;;4.23;;
21101;SDS011;10709;49.006;12.100;2023-11-22T07:43:04;5.90;;;4.50;;
21101;SDS011;10709;49.006;12.100;2023-11-22T07:45:31;5.87;;;4.67;;
21101;SDS011;10709;49.006;12.100;2023-11-22T07:48:00;5.23;;;4.43;;
21101;SDS011;10709;49.006;12.100;2023-11-22T07:50:27;6.00;;;4.70;;
21101;SDS011;10709;49.006;12.100;2023-11-22T07:52:54;6.50;;;4.60;;
21101;SDS011;10709;49.006;12.100;2023-11-22T07:55:21;7.50;;;5.23;;
21101;SDS011;10709;49.006;12.100;2023-11-22T07:57:48;6.83;;;5.30;;
21101;SDS011;10709;49.006;12.100;2023-11-22T08:00:17;6.33;;;5.10;;
21101;SDS011;10709;49.006;12.100;2023-11-22T08:02:45;7.20;;;5.70;;
21101;SDS011;10709;49.006;12.100;2023-11-22T08:05:13;6.70;;;5.23;;
21101;SDS011;10709;49.006;12.100;2023-11-22T08:07:43;7.83;;;5.30;;
21101;SDS011;10709;49.006;12.100;2023-11-22T08:10:15;7.00;;;5.30;;
21101;SDS011;10709;49.006;12.100;2023-11-22T08:12:47;6.90;;;5.23;;
21101;SDS011;10709;49.006;12.100;2023-11-22T08:15:16;7.60;;;5.20;;
21101;SDS011;10709;49.006;12.100;2023-11-22T08:17:46;7.00;;;4.93;;
21101;SDS011;10709;49.006;12.100;2023-11-22T08:20:13;6.73;;;5.37;;
21101;SDS011;10709;49.006;12.100;2023-11-22T08:22:45;6.93;;;5.10;;
21101;SDS011;10709;49.006;12.100;2023-11-22T08:25:13;6.97;;;5.10;;
21101;SDS011;10709;49.006;12.100;2023-11-22T08:27:39;7.17;;;5.70;;
21101;SDS011;10709;49.006;12.100;2023-11-22T08:30:08;7.70;;;5.80;;
21101;SDS011;10709;49.006;12.100;2023-11-22T08:32:40;7.83;;;6.00;;
21101;SDS011;10709;49.006;12.100;2023-11-22T08:35:13;8.53;;;5.93;;
21101;SDS011;10709;49.006;12.100;2023-11-22T08:37:43;8.73;;;6.40;;
21101;SDS011;10709;49.006;12.100;2023-11-22T08:40:10;8.97;;;6.47;;
21101;SDS011;10709;49.006;12.100;2023-11-22T08:42:46;7.60;;;5.57;;
21101;SDS011;10709;49.006;12.100;2023-11-22T08:45:14;8.17;;;5.93;;
21101;SDS011;10709;49.006;12.100;2023-11-22T08:47:42;9.10;;;6.70;;
21101;SDS011;10709;49.006;12.100;2023-11-22T08:50:09;8.43;;;6.03;;
21101;SDS011;10709;49.006;12.100;2023-11-22T08:52:39;9.37;;;6.70;;
21101;SDS011;10709;49.006;12.100;2023-11-22T08:55:08;8.43;;;5.97;;
21101;SDS011;10709;49.006;12.100;2023-11-22T08:57:38;8.30;;;6.33;;
21101;SDS011;10709;49.006;12.100;2023-11-22T09:00:05;8.80;;;6.57;;
21101;SDS011;10709;49.006;12.100;2023-11-22T09:02:36;9.60;;;7.03;;
21101;SDS011;10709;49.006;12.100;2023-11-22T09:05:05;9.30;;;6.70;;
21101;SDS011;10709;49.006;12.100;2023-11-22T09:07:36;10.23;;;7.00;;
21101;SDS011;10709;49.006;12.100;2023-11-22T09:10:04;9.03;;;6.33;;
21101;SDS011;10709;49.006;12.100;2023-11-22T09:12:37;9.00;;;6.40;;
21101;SDS011;10709;49.006;12.100;2023-11-22T09:15:08;9.77;;;7.10;;
21101;SDS011;10709;49.006;12.100;2023-11-22T09:17:39;10.00;;;6.10;;
21101;SDS011;10709;49.006;12.100;2023-11-22T09:20:14;9.63;;;6.77;;
21101;SDS011;10709;49.006;12.100;2023-11-22T09:22:42;9.53;;;7.13;;
21101;SDS011;10709;49.006;12.100;2023-11-22T09:27:43;9.93;;;7.07;;
21101;SDS011;10709;49.006;12.100;2023-11-22T09:30:13;8.57;;;6.70;;
21101;SDS011;10709;49.006;12.100;2023-11-22T09:33:00;9.70;;;6.97;;
21101;SDS011;10709;49.006;12.100;2023-11-22T09:35:34;10.80;;;6.80;;
21101;SDS011;10709;49.006;12.100;2023-11-22T09:38:03;12.03;;;7.27;;
21101;SDS011;10709;49.006;12.100;2023-11-22T09:40:35;12.70;;;7.80;;
21101;SDS011;10709;49.006;12.100;2023-11-22T09:43:03;10.33;;;7.03;;
21101;SDS011;10709;49.006;12.100;2023-11-22T09:45:29;12.13;;;7.00;;
21101;SDS011;10709;49.006;12.100;2023-11-22T09:47:57;11.47;;;7.23;;
21101;SDS011;10709;49.006;12.100;2023-11-22T09:50:33;11.67;;;7.00;;
21101;SDS011;10709;49.006;12.100;2023-11-22T09:53:19;10.37;;;6.70;;
21101;SDS011;10709;49.006;12.100;2023-11-22T09:55:52;9.13;;;7.00;;
21101;SDS011;10709;49.006;12.100;2023-11-22T09:58:21;10.00;;;6.50;;
21101;SDS011;10709;49.006;12.100;2023-11-22T10:00:48;8.57;;;6.67;;
21101;SDS011;10709;49.006;12.100;2023-11-22T10:03:16;8.43;;;6.40;;
21101;SDS011;10709;49.006;12.100;2023-11-22T10:05:44;8.90;;;7.07;;
21101;SDS011;10709;49.006;12.100;2023-11-22T10:08:11;8.03;;;6.57;;
21101;SDS011;10709;49.006;12.100;2023-11-22T10:10:50;8.20;;;6.30;;
21101;SDS011;10709;49.006;12.100;2023-11-22T10:13:20;8.47;;;6.70;;
21101;SDS011;10709;49.006;12.100;2023-11-22T10:15:51;9.73;;;6.97;;
21101;SDS011;10709;49.006;12.100;2023-11-22T10:18:20;8.10;;;6.73;;
21101;SDS011;10709;49.006;12.100;2023-11-22T10:20:48;8.37;;;6.90;;
21101;SDS011;10709;49.006;12.100;2023-11-22T10:23:16;8.07;;;6.10;;
21101;SDS011;10709;49.006;12.100;2023-11-22T10:28:18;8.67;;;6.33;;
21101;SDS011;10709;49.006;12.100;2023-11-22T10:30:46;7.87;;;6.37;;
21101;SDS011;10709;49.006;12.100;2023-11-22T10:33:14;7.17;;;5.93;;
21101;SDS011;10709;49.006;12.100;2023-11-22T10:35:42;7.97;;;6.47;;
21101;SDS011;10709;49.006;12.100;2023-11-22T10:38:15;9.03;;;6.67;;
21101;SDS011;10709;49.006;12.100;2023-11-22T10:40:43;7.63;;;6.03;;
21101;SDS011;10709;49.006;12.100;2023-11-22T10:43:12;7.03;;;5.70;;
21101;SDS011;10709;49.006;12.100;2023-11-22T10:45:39;7.47;;;5.93;;
21101;SDS011;10709;49.006;12.100;2023-11-22T10:48:13;7.90;;;6.30;;
21101;SDS011;10709;49.006;12.100;2023-11-22T10:50:46;8.17;;;6.10;;
21101;SDS011;10709;49.006;12.100;2023-11-22T10:53:20;7.47;;;6.27;;
21101;SDS011;10709;49.006;12.100;2023-11-22T10:55:53;8.20;;;6.20;;
21101;SDS011;10709;49.006;12.100;2023-11-22T10:58:25;7.40;;;5.97;;
21101;SDS011;10709;49.006;12.100;2023-11-22T11:00:54;8.27;;;6.33;;
21101;SDS011;10709;49.006;12.100;2023-11-22T11:03:22;8.60;;;6.77;;
21101;SDS011;10709;49.006;12.100;2023-11-22T11:05:57;7.17;;;5.97;;
21101;SDS011;10709;49.006;12.100;2023-11-22T11:08:26;6.97;;;5.97;;
21101;SDS011;10709;49.006;12.100;2023-11-22T11:10:56;6.93;;;5.60;;
21101;SDS011;10709;49.006;12.100;2023-11-22T11:13:25;6.63;;;5.73;;
21101;SDS011;10709;49.006;12.100;2023-11-22T11:15:53;7.80;;;6.00;;
21101;SDS011;10709;49.006;12.100;2023-11-22T11:18:20;6.70;;;5.90;;
21101;SDS011;10709;49.006;12.100;2023-11-22T11:20:51;7.17;;;5.90;;
21101;SDS011;10709;49.006;12.100;2023-11-22T11:23:20;10.97;;;6.53;;
21101;SDS011;10709;49.006;12.100;2023-11-22T11:25:59;6.37;;;5.53;;
21101;SDS011;10709;49.006;12.100;2023-11-22T11:28:43;6.37;;;5.63;;
21101;SDS011;10709;49.006;12.100;2023-11-22T11:31:12;6.83;;;5.53;;
21101;SDS011;10709;49.006;12.100;2023-11-22T11:33:52;7.30;;;5.77;;
21101;SDS011;10709;49.006;12.100;2023-11-22T11:36:26;6.20;;;5.30;;
21101;SDS011;10709;49.006;12.100;2023-11-22T11:38:56;7.70;;;6.13;;
21101;SDS011;10709;49.006;12.100;2023-11-22T11:41:31;6.87;;;5.70;;
21101;SDS011;10709;49.006;12.100;2023-11-22T11:44:00;7.40;;;5.97;;
21101;SDS011;10709;49.006;12.100;2023-11-22T11:46:28;8.07;;;6.03;;
21101;SDS011;10709;49.006;12.100;2023-11-22T11:48:59;6.90;;;5.30;;
21101;SDS011;10709;49.006;12.100;2023-11-22T11:51:27;9.30;;;6.87;;
21101;SDS011;10709;49.006;12.100;2023-11-22T11:53:55;7.70;;;6.00;;
21101;SDS011;10709;49.006;12.100;2023-11-22T11:56:22;8.13;;;6.70;;
21101;SDS011;10709;49.006;12.100;2023-11-22T11:58:53;8.17;;;6.57;;
21101;SDS011;10709;49.006;12.100;2023-11-22T12:01:23;8.03;;;6.80;;
21101;SDS011;10709;49.006;12.100;2023-11-22T12:03:52;9.23;;;7.10;;
21101;SDS011;10709;49.006;12.100;2023-11-22T12:06:19;8.83;;;6.90;;
21101;SDS011;10709;49.006;12.100;2023-11-22T12:08:47;7.53;;;6.10;;
21101;SDS011;10709;49.006;12.100;2023-11-22T12:11:14;8.53;;;6.47;;
21101;SDS011;10709;49.006;12.100;2023-11-22T12:13:50;7.30;;;5.67;;
21101;SDS011;10709;49.006;12.100;2023-11-22T12:16:19;8.80;;;6.13;;
21101;SDS011;10709;49.006;12.100;2023-11-22T12:18:46;8.63;;;6.83;;
21101;SDS011;10709;49.006;12.100;2023-11-22T12:21:17;8.47;;;6.60;;
21101;SDS011;10709;49.006;12.100;2023-11-22T12:23:45;8.83;;;7.00;;
21101;SDS011;10709;49.006;12.100;2023-11-22T12:26:15;11.20;;;8.00;;
21101;SDS011;10709;49.006;12.100;2023-11-22T12:28:48;9.70;;;7.47;;
21101;SDS011;10709;49.006;12.100;2023-11-22T12:34:03;11.73;;;8.33;;
21101;SDS011;10709;49.006;12.100;2023-11-22T12:36:33;8.70;;;7.17;;
21101;SDS011;10709;49.006;12.100;2023-11-22T12:39:00;10.57;;;7.40;;
21101;SDS011;10709;49.006;12.100;2023-11-22T12:41:26;10.07;;;7.67;;
21101;SDS011;10709;49.006;12.100;2023-11-22T12:44:04;9.80;;;7.63;;
21101;SDS011;10709;49.006;12.100;2023-11-22T12:46:44;10.07;;;7.80;;
21101;SDS011;10709;49.006;12.100;2023-11-22T12:49:24;11.63;;;8.13;;
21101;SDS011;10709;49.006;12.100;2023-11-22T12:51:53;12.93;;;7.90;;
21101;SDS011;10709;49.006;12.100;2023-11-22T12:54:21;10.23;;;7.67;;
21101;SDS011;10709;49.006;12.100;2023-11-22T12:56:48;9.47;;;7.07;;
21101;SDS011;10709;49.006;12.100;2023-11-22T12:59:16;10.00;;;7.50;;
21101;SDS011;10709;49.006;12.100;2023-11-22T13:01:44;10.50;;;8.30;;
21101;SDS011;10709;49.006;12.100;2023-11-22T13:04:11;11.30;;;8.20;;
21101;SDS011;10709;49.006;12.100;2023-11-22T13:06:40;11.53;;;8.10;;
21101;SDS011;10709;49.006;12.100;2023-11-22T13:09:08;12.30;;;9.33;;
21101;SDS011;10709;49.006;12.100;2023-11-22T13:11:41;12.57;;;8.90;;
21101;SDS011;10709;49.006;12.100;2023-11-22T13:14:09;13.00;;;9.10;;
21101;SDS011;10709;49.006;12.100;2023-11-22T13:16:36;12.13;;;8.57;;
21101;SDS011;10709;49.006;12.100;2023-11-22T13:19:04;10.30;;;8.13;;
21101;SDS011;10709;49.006;12.100;2023-11-22T13:21:31;10.53;;;7.83;;
21101;SDS011;10709;49.006;12.100;2023-11-22T13:23:58;11.70;;;8.17;;
21101;SDS011;10709;49.006;12.100;2023-11-22T13:26:26;10.67;;;8.53;;
21101;SDS011;10709;49.006;12.100;2023-11-22T13:28:53;12.20;;;9.00;;
21101;SDS011;10709;49.006;12.100;2023-11-22T13:31:21;11.97;;;9.07;;
21101;SDS011;10709;49.006;12.100;2023-11-22T13:33:48;12.27;;;8.60;;
21101;SDS011;10709;49.006;12.100;2023-11-22T13:36:14;10.70;;;8.33;;
21101;SDS011;10709;49.006;12.100;2023-11-22T13:38:41;12.50;;;8.27;;
21101;SDS011;10709;49.006;12.100;2023-11-22T13:41:07;13.40;;;8.87;;
21101;SDS011;10709;49.006;12.100;2023-11-22T13:43:34;12.17;;;8.33;;
21101;SDS011;10709;49.006;12.100;2023-11-22T13:46:01;14.10;;;8.97;;
21101;SDS011;10709;49.006;12.100;2023-11-22T13:48:28;12.50;;;9.03;;
21101;SDS011;10709;49.006;12.100;2023-11-22T13:50:55;13.27;;;9.70;;
21101;SDS011;10709;49.006;12.100;2023-11-22T13:53:22;14.73;;;9.40;;
21101;SDS011;10709;49.006;12.100;2023-11-22T13:55:49;16.57;;;9.47;;
21101;SDS011;10709;49.006;12.100;2023-11-22T13:58:18;13.73;;;9.27;;
21101;SDS011;10709;49.006;12.100;2023-11-22T14:00:44;11.43;;;8.33;;
21101;SDS011;10709;49.006;12.100;2023-11-22T14:03:13;11.67;;;8.90;;
21101;SDS011;10709;49.006;12.100;2023-11-22T14:05:40;13.40;;;8.70;;
21101;SDS011;10709;49.006;12.100;2023-11-22T14:08:07;13.17;;;9.27;;
21101;SDS011;10709;49.006;12.100;2023-11-22T14:10:33;12.47;;;8.80;;
21101;SDS011;10709;49.006;12.100;2023-11-22T14:13:00;11.73;;;8.43;;
21101;SDS011;10709;49.006;12.100;2023-11-22T14:15:29;13.33;;;8.87;;
21101;SDS011;10709;49.006;12.100;2023-11-22T14:17:55;12.87;;;8.83;;
21101;SDS011;10709;49.006;12.100;2023-11-22T14:20:22;12.33;;;8.60;;
21101;SDS011;10709;49.006;12.100;2023-11-22T14:22:50;12.83;;;8.87;;
21101;SDS011;10709;49.006;12.100;2023-11-22T14:25:17;13.13;;;9.20;;
21101;SDS011;10709;49.006;12.100;2023-11-22T14:27:44;11.77;;;8.73;;
21101;SDS011;10709;49.006;12.100;2023-11-22T14:30:12;13.50;;;8.93;;
21101;SDS011;10709;49.006;12.100;2023-11-22T14:32:43;10.23;;;7.67;;
21101;SDS011;10709;49.006;12.100;2023-11-22T14:35:10;11.87;;;7.50;;
21101;SDS011;10709;49.006;12.100;2023-11-22T14:37:38;11.73;;;8.30;;
21101;SDS011;10709;49.006;12.100;2023-11-22T14:40:09;10.13;;;7.10;;
21101;SDS011;10709;49.006;12.100;2023-11-22T14:42:43;12.63;;;8.20;;
21101;SDS011;10709;49.006;12.100;2023-11-22T14:45:16;10.83;;;7.70;;
21101;SDS011;10709;49.006;12.100;2023-11-22T14:47:46;13.83;;;8.53;;